Terminal Aerodrome Forecast
Issued by NWS

Home | Current Version | Previous Version | Text Only | Print | Product List | Glossary On
Versions: 1 2 3 4 5 6 7 8 9 10 11 12 13
000
FTUS45 KRIW 251124
TAFPNA
TAF
KPNA 251124Z 2512/2612 30006KT P6SM SKC
     FM251500 VRB05KT P6SM SKC
     FM252000 30007KT P6SM SCT110
     FM260500 30006KT P6SM SKC
      AMD LTD TO CLD VIS AND WIND=

USA.gov is the U.S. government's official web portal to all federal, state and local government web resources and services.